X  Close Metar Aviation Weather Data     YPAD Adelaide International Airport
Temperature
23°C Temperature
-1°C Dewpoint
20% Humidity



Wind
39 KM/H
24 MPH
11 M/S
21 KTS



30°
NNE
Current Conditions

Clear Clear
Pressure 1006.92 (hPa) - 29.73 (inHg)
Visibility 6.2 (mile) - 10 (km)
Airport
Airport-code YPAD

Location: Adelaide International Airport
Distance: 20 (km)

Metar:
YPAD 161530Z 03021KT CAVOK 23/M01 Q1007

Time: 17-09-2021 1:00 am ACST